sensor_id;sensor_type;location;lat;lon;timestamp;pressure;altitude;pressure_sealevel;temperature;humidity
78909;BME280;68298;37.368;127.108;2023-04-07T00:00:05;100314.56;;;17.81;46.83
78909;BME280;68298;37.368;127.108;2023-04-07T00:02:40;100313.72;;;17.81;46.49
78909;BME280;68298;37.368;127.108;2023-04-07T00:05:12;100307.94;;;17.88;46.07
78909;BME280;68298;37.368;127.108;2023-04-07T00:07:43;100324.81;;;17.97;46.09
78909;BME280;68298;37.368;127.108;2023-04-07T00:10:24;100318.09;;;17.93;45.79
78909;BME280;68298;37.368;127.108;2023-04-07T00:12:55;100325.91;;;18.06;46.23
78909;BME280;68298;37.368;127.108;2023-04-07T00:15:25;100325.81;;;18.07;46.07
78909;BME280;68298;37.368;127.108;2023-04-07T00:17:58;100328.50;;;18.06;46.14
78909;BME280;68298;37.368;127.108;2023-04-07T00:20:28;100321.59;;;18.05;45.52
78909;BME280;68298;37.368;127.108;2023-04-07T00:23:13;100325.41;;;18.01;46.05
78909;BME280;68298;37.368;127.108;2023-04-07T00:26:01;100327.84;;;17.91;46.21
78909;BME280;68298;37.368;127.108;2023-04-07T00:28:32;100334.25;;;17.87;45.64
78909;BME280;68298;37.368;127.108;2023-04-07T00:34:46;100333.91;;;17.91;45.08
78909;BME280;68298;37.368;127.108;2023-04-07T00:37:17;100331.22;;;17.93;44.75
78909;BME280;68298;37.368;127.108;2023-04-07T00:39:50;100333.09;;;17.91;44.81
78909;BME280;68298;37.368;127.108;2023-04-07T00:42:21;100332.03;;;17.93;44.53
78909;BME280;68298;37.368;127.108;2023-04-07T00:44:51;100331.88;;;17.84;44.59
78909;BME280;68298;37.368;127.108;2023-04-07T00:47:22;100322.59;;;17.91;44.11
78909;BME280;68298;37.368;127.108;2023-04-07T00:49:55;100323.22;;;17.94;44.33
78909;BME280;68298;37.368;127.108;2023-04-07T00:52:26;100329.53;;;17.92;44.02
78909;BME280;68298;37.368;127.108;2023-04-07T00:55:01;100323.69;;;17.88;44.04
78909;BME280;68298;37.368;127.108;2023-04-07T00:57:32;100330.47;;;17.91;43.77
78909;BME280;68298;37.368;127.108;2023-04-07T01:00:03;100329.75;;;17.89;43.97
78909;BME280;68298;37.368;127.108;2023-04-07T01:02:58;100333.59;;;17.96;43.65
78909;BME280;68298;37.368;127.108;2023-04-07T01:05:52;100340.03;;;17.92;43.51
78909;BME280;68298;37.368;127.108;2023-04-07T01:11:43;100343.81;;;17.88;43.28
78909;BME280;68298;37.368;127.108;2023-04-07T01:14:20;100342.97;;;17.87;43.50
78909;BME280;68298;37.368;127.108;2023-04-07T01:17:01;100347.34;;;17.87;43.71
78909;BME280;68298;37.368;127.108;2023-04-07T01:22:32;100355.84;;;17.90;43.10
78909;BME280;68298;37.368;127.108;2023-04-07T01:25:59;100350.59;;;17.90;43.35
78909;BME280;68298;37.368;127.108;2023-04-07T01:31:25;100345.53;;;18.00;42.60
78909;BME280;68298;37.368;127.108;2023-04-07T01:33:58;100352.88;;;17.95;43.12
78909;BME280;68298;37.368;127.108;2023-04-07T01:36:31;100359.59;;;17.99;42.95
78909;BME280;68298;37.368;127.108;2023-04-07T01:39:03;100358.25;;;17.93;43.22
78909;BME280;68298;37.368;127.108;2023-04-07T01:41:38;100364.66;;;17.89;42.92
78909;BME280;68298;37.368;127.108;2023-04-07T01:44:10;100361.72;;;17.94;43.28
78909;BME280;68298;37.368;127.108;2023-04-07T01:46:41;100358.38;;;17.92;43.07
78909;BME280;68298;37.368;127.108;2023-04-07T01:49:13;100360.03;;;17.93;43.10
78909;BME280;68298;37.368;127.108;2023-04-07T01:51:45;100347.44;;;17.98;42.82
78909;BME280;68298;37.368;127.108;2023-04-07T01:54:20;100351.72;;;17.99;42.84
78909;BME280;68298;37.368;127.108;2023-04-07T01:56:52;100354.97;;;18.03;42.19
78909;BME280;68298;37.368;127.108;2023-04-07T01:59:22;100351.19;;;18.07;41.86
78909;BME280;68298;37.368;127.108;2023-04-07T02:01:54;100354.84;;;18.04;42.40
78909;BME280;68298;37.368;127.108;2023-04-07T02:04:31;100344.25;;;18.06;42.34
78909;BME280;68298;37.368;127.108;2023-04-07T02:07:13;100355.22;;;18.11;42.34
78909;BME280;68298;37.368;127.108;2023-04-07T02:09:50;100358.31;;;18.05;42.61
78909;BME280;68298;37.368;127.108;2023-04-07T02:12:25;100359.97;;;18.06;42.74
78909;BME280;68298;37.368;127.108;2023-04-07T02:15:10;100350.84;;;18.11;41.83
78909;BME280;68298;37.368;127.108;2023-04-07T02:17:46;100352.97;;;18.06;42.48
78909;BME280;68298;37.368;127.108;2023-04-07T02:20:21;100358.25;;;18.17;41.68
78909;BME280;68298;37.368;127.108;2023-04-07T02:22:52;100355.63;;;18.17;41.42
78909;BME280;68298;37.368;127.108;2023-04-07T02:25:28;100361.44;;;18.10;41.99
78909;BME280;68298;37.368;127.108;2023-04-07T02:28:01;100349.28;;;18.09;41.88
78909;BME280;68298;37.368;127.108;2023-04-07T02:30:33;100344.25;;;18.06;42.14
78909;BME280;68298;37.368;127.108;2023-04-07T02:33:05;100352.72;;;18.09;42.08
78909;BME280;68298;37.368;127.108;2023-04-07T02:35:35;100349.78;;;18.14;42.41
78909;BME280;68298;37.368;127.108;2023-04-07T02:38:06;100342.41;;;18.19;42.50
78909;BME280;68298;37.368;127.108;2023-04-07T02:40:37;100341.38;;;18.22;42.70
78909;BME280;68298;37.368;127.108;2023-04-07T02:43:08;100344.06;;;18.44;41.58
78909;BME280;68298;37.368;127.108;2023-04-07T02:45:39;100340.44;;;18.34;42.04
78909;BME280;68298;37.368;127.108;2023-04-07T02:48:09;100333.16;;;18.26;42.60
78909;BME280;68298;37.368;127.108;2023-04-07T02:50:40;100343.47;;;18.40;41.09
78909;BME280;68298;37.368;127.108;2023-04-07T02:53:11;100337.94;;;18.32;42.00
78909;BME280;68298;37.368;127.108;2023-04-07T02:55:45;100336.03;;;18.34;42.13
78909;BME280;68298;37.368;127.108;2023-04-07T02:58:15;100339.06;;;18.41;41.32
78909;BME280;68298;37.368;127.108;2023-04-07T03:00:47;100337.13;;;18.32;41.58
78909;BME280;68298;37.368;127.108;2023-04-07T03:03:24;100323.53;;;18.38;40.98
78909;BME280;68298;37.368;127.108;2023-04-07T03:06:12;100319.47;;;18.34;41.49
78909;BME280;68298;37.368;127.108;2023-04-07T03:09:12;100326.75;;;18.30;42.13
78909;BME280;68298;37.368;127.108;2023-04-07T03:11:45;100320.06;;;18.26;41.42
78909;BME280;68298;37.368;127.108;2023-04-07T03:14:18;100310.28;;;18.28;42.32
78909;BME280;68298;37.368;127.108;2023-04-07T03:16:51;100307.81;;;18.38;42.37
78909;BME280;68298;37.368;127.108;2023-04-07T03:19:31;100299.94;;;18.38;43.15
78909;BME280;68298;37.368;127.108;2023-04-07T03:22:33;100308.56;;;18.51;41.13
78909;BME280;68298;37.368;127.108;2023-04-07T03:25:20;100304.84;;;18.42;42.49
78909;BME280;68298;37.368;127.108;2023-04-07T03:27:55;100300.34;;;18.44;42.28
78909;BME280;68298;37.368;127.108;2023-04-07T03:30:29;100295.19;;;18.43;42.94
78909;BME280;68298;37.368;127.108;2023-04-07T03:32:59;100287.22;;;18.44;42.29
78909;BME280;68298;37.368;127.108;2023-04-07T03:35:31;100292.69;;;18.41;42.56
78909;BME280;68298;37.368;127.108;2023-04-07T03:38:02;100292.56;;;18.43;42.38
78909;BME280;68298;37.368;127.108;2023-04-07T03:40:32;100287.91;;;18.35;42.86
78909;BME280;68298;37.368;127.108;2023-04-07T03:43:07;100288.06;;;18.45;42.29
78909;BME280;68298;37.368;127.108;2023-04-07T03:45:47;100279.53;;;18.30;43.45
78909;BME280;68298;37.368;127.108;2023-04-07T03:48:20;100283.16;;;18.40;42.90
78909;BME280;68298;37.368;127.108;2023-04-07T03:51:02;100281.09;;;18.33;42.30
78909;BME280;68298;37.368;127.108;2023-04-07T03:53:34;100273.69;;;18.27;44.61
78909;BME280;68298;37.368;127.108;2023-04-07T03:56:16;100278.00;;;18.39;42.36
78909;BME280;68298;37.368;127.108;2023-04-07T03:58:50;100269.19;;;18.40;42.79
78909;BME280;68298;37.368;127.108;2023-04-07T04:01:30;100271.22;;;18.48;42.84
78909;BME280;68298;37.368;127.108;2023-04-07T04:04:07;100266.94;;;18.35;43.38
78909;BME280;68298;37.368;127.108;2023-04-07T04:06:39;100261.91;;;18.32;43.52
78909;BME280;68298;37.368;127.108;2023-04-07T04:09:42;100260.22;;;18.31;42.81
78909;BME280;68298;37.368;127.108;2023-04-07T04:12:13;100256.91;;;18.40;43.33
78909;BME280;68298;37.368;127.108;2023-04-07T04:15:01;100256.53;;;18.34;43.87
78909;BME280;68298;37.368;127.108;2023-04-07T04:17:33;100262.25;;;18.28;44.58
78909;BME280;68298;37.368;127.108;2023-04-07T04:20:06;100255.19;;;18.28;42.61
78909;BME280;68298;37.368;127.108;2023-04-07T04:22:42;100260.09;;;18.33;41.56
78909;BME280;68298;37.368;127.108;2023-04-07T04:25:15;100246.16;;;18.32;41.08
78909;BME280;68298;37.368;127.108;2023-04-07T04:27:50;100239.47;;;18.28;41.12
78909;BME280;68298;37.368;127.108;2023-04-07T04:30:24;100242.72;;;18.32;39.51
78909;BME280;68298;37.368;127.108;2023-04-07T04:33:02;100227.81;;;18.32;40.30
78909;BME280;68298;37.368;127.108;2023-04-07T04:35:40;100229.94;;;18.27;39.71
78909;BME280;68298;37.368;127.108;2023-04-07T04:38:14;100225.31;;;18.31;38.26
78909;BME280;68298;37.368;127.108;2023-04-07T04:40:52;100205.50;;;18.27;37.49
78909;BME280;68298;37.368;127.108;2023-04-07T04:43:30;100214.91;;;18.29;37.39
78909;BME280;68298;37.368;127.108;2023-04-07T04:46:05;100220.50;;;18.25;37.66
78909;BME280;68298;37.368;127.108;2023-04-07T04:48:40;100224.91;;;18.24;37.24
78909;BME280;68298;37.368;127.108;2023-04-07T04:51:11;100222.41;;;18.23;37.75
78909;BME280;68298;37.368;127.108;2023-04-07T04:53:43;100210.00;;;18.25;36.70
78909;BME280;68298;37.368;127.108;2023-04-07T04:56:15;100211.81;;;18.24;37.22
78909;BME280;68298;37.368;127.108;2023-04-07T04:58:48;100227.44;;;18.26;36.28
78909;BME280;68298;37.368;127.108;2023-04-07T05:01:28;100214.56;;;18.23;36.41
78909;BME280;68298;37.368;127.108;2023-04-07T05:04:08;100201.66;;;18.19;36.77
78909;BME280;68298;37.368;127.108;2023-04-07T05:06:45;100204.41;;;18.18;36.79
78909;BME280;68298;37.368;127.108;2023-04-07T05:09:24;100207.66;;;18.22;35.26
78909;BME280;68298;37.368;127.108;2023-04-07T05:11:57;100202.28;;;18.23;35.86
78909;BME280;68298;37.368;127.108;2023-04-07T05:14:32;100187.38;;;18.24;34.74
78909;BME280;68298;37.368;127.108;2023-04-07T05:17:05;100185.50;;;18.26;35.22
78909;BME280;68298;37.368;127.108;2023-04-07T05:19:37;100196.91;;;18.25;34.63
78909;BME280;68298;37.368;127.108;2023-04-07T05:22:25;100190.94;;;18.23;34.77
78909;BME280;68298;37.368;127.108;2023-04-07T05:24:57;100196.19;;;18.23;34.67
78909;BME280;68298;37.368;127.108;2023-04-07T05:27:27;100186.19;;;18.28;33.15
78909;BME280;68298;37.368;127.108;2023-04-07T05:30:03;100174.13;;;18.25;33.98
78909;BME280;68298;37.368;127.108;2023-04-07T05:32:42;100178.69;;;18.23;33.90
78909;BME280;68298;37.368;127.108;2023-04-07T05:35:29;100181.16;;;18.25;34.10
78909;BME280;68298;37.368;127.108;2023-04-07T05:38:05;100180.25;;;18.26;33.76
78909;BME280;68298;37.368;127.108;2023-04-07T05:40:40;100184.53;;;18.27;33.22
78909;BME280;68298;37.368;127.108;2023-04-07T05:43:22;100187.97;;;18.27;33.71
78909;BME280;68298;37.368;127.108;2023-04-07T05:45:55;100190.81;;;18.24;33.26
78909;BME280;68298;37.368;127.108;2023-04-07T05:48:26;100185.50;;;18.26;33.78
78909;BME280;68298;37.368;127.108;2023-04-07T05:50:58;100182.13;;;18.24;33.93
78909;BME280;68298;37.368;127.108;2023-04-07T05:53:35;100174.88;;;18.27;33.28
78909;BME280;68298;37.368;127.108;2023-04-07T05:56:06;100179.50;;;18.24;34.28
78909;BME280;68298;37.368;127.108;2023-04-07T05:59:00;100187.97;;;18.27;33.29
78909;BME280;68298;37.368;127.108;2023-04-07T06:01:45;100192.41;;;18.27;33.85
78909;BME280;68298;37.368;127.108;2023-04-07T06:04:30;100195.97;;;18.26;33.64
78909;BME280;68298;37.368;127.108;2023-04-07T06:07:05;100201.31;;;18.24;33.19
78909;BME280;68298;37.368;127.108;2023-04-07T06:09:36;100201.31;;;18.24;32.56
78909;BME280;68298;37.368;127.108;2023-04-07T06:12:07;100193.78;;;18.19;32.63
78909;BME280;68298;37.368;127.108;2023-04-07T06:14:38;100192.50;;;18.25;32.53
78909;BME280;68298;37.368;127.108;2023-04-07T06:17:09;100198.34;;;18.29;32.08
78909;BME280;68298;37.368;127.108;2023-04-07T06:19:40;100194.78;;;18.30;31.00
78909;BME280;68298;37.368;127.108;2023-04-07T06:22:16;100198.34;;;18.29;31.56
78909;BME280;68298;37.368;127.108;2023-04-07T06:24:48;100196.47;;;18.31;31.55
78909;BME280;68298;37.368;127.108;2023-04-07T06:27:20;100196.47;;;18.31;31.02
78909;BME280;68298;37.368;127.108;2023-04-07T06:29:51;100194.78;;;18.30;30.71
78909;BME280;68298;37.368;127.108;2023-04-07T06:32:22;100198.13;;;18.32;30.43
78909;BME280;68298;37.368;127.108;2023-04-07T06:34:53;100193.72;;;18.32;30.09
78909;BME280;68298;37.368;127.108;2023-04-07T06:37:24;100191.91;;;18.33;30.40
78909;BME280;68298;37.368;127.108;2023-04-07T06:39:55;100188.81;;;18.28;30.07
78909;BME280;68298;37.368;127.108;2023-04-07T06:42:32;100186.53;;;18.23;29.81
78909;BME280;68298;37.368;127.108;2023-04-07T06:45:15;100178.81;;;18.22;29.26
78909;BME280;68298;37.368;127.108;2023-04-07T06:47:47;100179.84;;;18.19;29.06
78909;BME280;68298;37.368;127.108;2023-04-07T06:50:17;100192.97;;;18.19;28.88
78909;BME280;68298;37.368;127.108;2023-04-07T06:52:50;100186.06;;;18.18;29.18
78909;BME280;68298;37.368;127.108;2023-04-07T06:55:26;100189.50;;;18.18;29.13
78909;BME280;68298;37.368;127.108;2023-04-07T06:57:56;100178.19;;;18.18;28.81
78909;BME280;68298;37.368;127.108;2023-04-07T07:00:27;100184.38;;;18.17;28.62
78909;BME280;68298;37.368;127.108;2023-04-07T07:02:59;100185.94;;;18.19;28.81
78909;BME280;68298;37.368;127.108;2023-04-07T07:05:30;100167.56;;;18.19;28.78
78909;BME280;68298;37.368;127.108;2023-04-07T07:08:01;100172.81;;;18.19;28.90
78909;BME280;68298;37.368;127.108;2023-04-07T07:10:31;100173.56;;;18.22;28.63
78909;BME280;68298;37.368;127.108;2023-04-07T07:13:02;100176.19;;;18.22;28.79
78909;BME280;68298;37.368;127.108;2023-04-07T07:15:33;100167.34;;;18.23;28.83
78909;BME280;68298;37.368;127.108;2023-04-07T07:18:04;100167.22;;;18.24;28.59
78909;BME280;68298;37.368;127.108;2023-04-07T07:20:34;100165.09;;;18.18;28.89
78909;BME280;68298;37.368;127.108;2023-04-07T07:23:05;100169.50;;;18.17;28.98
78909;BME280;68298;37.368;127.108;2023-04-07T07:25:35;100165.09;;;18.18;28.98
78909;BME280;68298;37.368;127.108;2023-04-07T07:28:07;100160.66;;;18.18;28.95
78909;BME280;68298;37.368;127.108;2023-04-07T07:30:39;100166.53;;;18.22;28.87
78909;BME280;68298;37.368;127.108;2023-04-07T07:33:10;100173.31;;;18.25;29.02
78909;BME280;68298;37.368;127.108;2023-04-07T07:35:41;100174.03;;;18.27;29.61
78909;BME280;68298;37.368;127.108;2023-04-07T07:38:11;100166.78;;;18.30;29.40
78909;BME280;68298;37.368;127.108;2023-04-07T07:40:45;100178.81;;;18.33;29.61
78909;BME280;68298;37.368;127.108;2023-04-07T07:43:16;100175.22;;;18.34;29.19
78909;BME280;68298;37.368;127.108;2023-04-07T07:45:46;100174.41;;;18.33;29.72
78909;BME280;68298;37.368;127.108;2023-04-07T07:48:17;100181.22;;;18.36;29.89
78909;BME280;68298;37.368;127.108;2023-04-07T07:50:47;100186.31;;;18.37;29.91
78909;BME280;68298;37.368;127.108;2023-04-07T07:53:19;100187.50;;;18.33;30.50
78909;BME280;68298;37.368;127.108;2023-04-07T07:55:50;100184.06;;;18.33;30.12
78909;BME280;68298;37.368;127.108;2023-04-07T07:58:21;100178.81;;;18.33;30.25
78909;BME280;68298;37.368;127.108;2023-04-07T08:00:52;100183.00;;;18.35;30.57
78909;BME280;68298;37.368;127.108;2023-04-07T08:03:23;100183.09;;;18.34;30.74
78909;BME280;68298;37.368;127.108;2023-04-07T08:05:53;100181.56;;;18.31;30.64
78909;BME280;68298;37.368;127.108;2023-04-07T08:08:24;100176.53;;;18.28;30.94
78909;BME280;68298;37.368;127.108;2023-04-07T08:10:55;100174.03;;;18.27;30.94
78909;BME280;68298;37.368;127.108;2023-04-07T08:13:25;100177.63;;;18.26;31.44
78909;BME280;68298;37.368;127.108;2023-04-07T08:15:56;100174.25;;;18.24;30.95
78909;BME280;68298;37.368;127.108;2023-04-07T08:18:26;100192.00;;;18.20;31.56
78909;BME280;68298;37.368;127.108;2023-04-07T08:20:57;100189.50;;;18.18;31.70
78909;BME280;68298;37.368;127.108;2023-04-07T08:23:27;100194.53;;;18.22;31.18
78909;BME280;68298;37.368;127.108;2023-04-07T08:25:58;100195.50;;;18.20;31.00
78909;BME280;68298;37.368;127.108;2023-04-07T08:28:29;100184.13;;;18.20;31.25
78909;BME280;68298;37.368;127.108;2023-04-07T08:31:00;100200.72;;;18.20;31.33
78909;BME280;68298;37.368;127.108;2023-04-07T08:33:31;100200.81;;;18.19;30.83
78909;BME280;68298;37.368;127.108;2023-04-07T08:36:02;100203.56;;;18.17;30.17
78909;BME280;68298;37.368;127.108;2023-04-07T08:38:33;100205.59;;;18.14;30.50
78909;BME280;68298;37.368;127.108;2023-04-07T08:41:11;100207.38;;;18.13;30.45
78909;BME280;68298;37.368;127.108;2023-04-07T08:43:42;100197.59;;;18.15;30.01
78909;BME280;68298;37.368;127.108;2023-04-07T08:46:19;100218.81;;;18.12;30.38
78909;BME280;68298;37.368;127.108;2023-04-07T08:48:55;100229.19;;;18.14;29.34
78909;BME280;68298;37.368;127.108;2023-04-07T08:51:31;100226.06;;;18.09;30.31
78909;BME280;68298;37.368;127.108;2023-04-07T08:54:09;100232.38;;;18.06;29.51
78909;BME280;68298;37.368;127.108;2023-04-07T08:56:41;100235.00;;;18.06;29.01
78909;BME280;68298;37.368;127.108;2023-04-07T08:59:13;100232.00;;;18.00;29.44
78909;BME280;68298;37.368;127.108;2023-04-07T09:01:45;100238.31;;;17.97;30.19
78909;BME280;68298;37.368;127.108;2023-04-07T09:04:16;100237.34;;;17.98;29.35
78909;BME280;68298;37.368;127.108;2023-04-07T09:06:46;100236.72;;;17.94;29.68
78909;BME280;68298;37.368;127.108;2023-04-07T09:09:17;100233.28;;;17.94;29.63
78909;BME280;68298;37.368;127.108;2023-04-07T09:11:48;100248.38;;;17.90;29.27
78909;BME280;68298;37.368;127.108;2023-04-07T09:14:22;100248.50;;;17.89;29.46
78909;BME280;68298;37.368;127.108;2023-04-07T09:16:54;100248.72;;;17.86;29.42
78909;BME280;68298;37.368;127.108;2023-04-07T09:19:26;100247.06;;;17.85;29.57
78909;BME280;68298;37.368;127.108;2023-04-07T09:21:57;100246.22;;;17.84;29.43
78909;BME280;68298;37.368;127.108;2023-04-07T09:24:28;100253.38;;;17.82;29.86
78909;BME280;68298;37.368;127.108;2023-04-07T09:29:45;100263.22;;;17.79;29.70
78909;BME280;68298;37.368;127.108;2023-04-07T09:32:36;100264.19;;;17.78;29.41
78909;BME280;68298;37.368;127.108;2023-04-07T09:35:07;100271.09;;;17.79;30.02
78909;BME280;68298;37.368;127.108;2023-04-07T09:37:38;100279.16;;;17.76;30.08
78909;BME280;68298;37.368;127.108;2023-04-07T09:40:09;100282.75;;;17.75;30.04
78909;BME280;68298;37.368;127.108;2023-04-07T09:42:46;100290.72;;;17.73;29.99
78909;BME280;68298;37.368;127.108;2023-04-07T09:45:26;100297.72;;;17.73;29.80
78909;BME280;68298;37.368;127.108;2023-04-07T09:48:25;100283.16;;;17.68;30.42
78909;BME280;68298;37.368;127.108;2023-04-07T09:51:05;100283.16;;;17.68;29.72
78909;BME280;68298;37.368;127.108;2023-04-07T09:53:50;100295.41;;;17.68;29.80
78909;BME280;68298;37.368;127.108;2023-04-07T09:56:21;100296.34;;;17.67;29.71
78909;BME280;68298;37.368;127.108;2023-04-07T09:58:54;100296.47;;;17.65;30.14
78909;BME280;68298;37.368;127.108;2023-04-07T10:01:24;100307.16;;;17.62;29.74
78909;BME280;68298;37.368;127.108;2023-04-07T10:03:55;100310.59;;;17.63;29.81
78909;BME280;68298;37.368;127.108;2023-04-07T10:06:26;100318.47;;;17.63;29.47
78909;BME280;68298;37.368;127.108;2023-04-07T10:09:01;100320.38;;;17.61;30.09
78909;BME280;68298;37.368;127.108;2023-04-07T10:11:32;100320.38;;;17.61;30.82
78909;BME280;68298;37.368;127.108;2023-04-07T10:14:03;100324.91;;;17.59;30.02
78909;BME280;68298;37.368;127.108;2023-04-07T10:16:34;100319.75;;;17.57;30.55
78909;BME280;68298;37.368;127.108;2023-04-07T10:19:06;100325.94;;;17.56;30.46
78909;BME280;68298;37.368;127.108;2023-04-07T10:21:39;100336.41;;;17.56;29.85
78909;BME280;68298;37.368;127.108;2023-04-07T10:26:58;100352.56;;;17.50;29.81
78909;BME280;68298;37.368;127.108;2023-04-07T10:29:36;100351.81;;;17.48;30.40
78909;BME280;68298;37.368;127.108;2023-04-07T10:32:07;100359.66;;;17.48;30.00
78909;BME280;68298;37.368;127.108;2023-04-07T10:37:18;100378.25;;;17.45;29.24
78909;BME280;68298;37.368;127.108;2023-04-07T10:42:49;100381.88;;;17.42;28.83
78909;BME280;68298;37.368;127.108;2023-04-07T10:48:23;100395.94;;;17.41;29.24
78909;BME280;68298;37.368;127.108;2023-04-07T10:57:11;100418.16;;;17.36;28.46
78909;BME280;68298;37.368;127.108;2023-04-07T11:00:14;100415.66;;;17.34;28.75
78909;BME280;68298;37.368;127.108;2023-04-07T11:02:45;100433.97;;;17.34;27.75
78909;BME280;68298;37.368;127.108;2023-04-07T11:05:20;100424.72;;;17.29;28.39
78909;BME280;68298;37.368;127.108;2023-04-07T11:07:53;100437.75;;;17.30;28.31
78909;BME280;68298;37.368;127.108;2023-04-07T11:10:28;100441.19;;;17.31;27.90
78909;BME280;68298;37.368;127.108;2023-04-07T11:13:00;100451.13;;;17.26;28.02
78909;BME280;68298;37.368;127.108;2023-04-07T11:15:35;100451.66;;;17.31;28.59
78909;BME280;68298;37.368;127.108;2023-04-07T11:18:17;100451.66;;;17.31;27.86
78909;BME280;68298;37.368;127.108;2023-04-07T11:20:52;100451.84;;;17.28;27.91
78909;BME280;68298;37.368;127.108;2023-04-07T11:23:23;100450.19;;;17.27;27.66
78909;BME280;68298;37.368;127.108;2023-04-07T11:26:01;100464.00;;;17.29;28.59
78909;BME280;68298;37.368;127.108;2023-04-07T11:28:32;100476.25;;;17.28;28.33
78909;BME280;68298;37.368;127.108;2023-04-07T11:31:03;100492.91;;;17.27;27.77
78909;BME280;68298;37.368;127.108;2023-04-07T11:33:34;100487.78;;;17.26;28.86
78909;BME280;68298;37.368;127.108;2023-04-07T11:36:07;100493.09;;;17.24;28.56
78909;BME280;68298;37.368;127.108;2023-04-07T11:38:38;100507.97;;;17.24;28.23
78909;BME280;68298;37.368;127.108;2023-04-07T11:41:13;100514.16;;;17.23;29.46
78909;BME280;68298;37.368;127.108;2023-04-07T11:43:44;100536.88;;;17.22;28.45
78909;BME280;68298;37.368;127.108;2023-04-07T11:46:16;100543.06;;;17.21;28.88
78909;BME280;68298;37.368;127.108;2023-04-07T11:48:48;100546.63;;;17.20;28.78
78909;BME280;68298;37.368;127.108;2023-04-07T11:51:22;100564.09;;;17.19;28.64
78909;BME280;68298;37.368;127.108;2023-04-07T11:53:56;100553.72;;;17.18;28.73
78909;BME280;68298;37.368;127.108;2023-04-07T11:56:26;100564.31;;;17.16;28.09
78909;BME280;68298;37.368;127.108;2023-04-07T11:58:59;100576.56;;;17.16;29.51
78909;BME280;68298;37.368;127.108;2023-04-07T12:01:40;100587.88;;;17.16;28.22
78909;BME280;68298;37.368;127.108;2023-04-07T12:04:15;100593.31;;;17.13;29.51
78909;BME280;68298;37.368;127.108;2023-04-07T12:06:47;100599.47;;;17.12;29.66
78909;BME280;68298;37.368;127.108;2023-04-07T12:11:57;100620.53;;;17.11;28.95
78909;BME280;68298;37.368;127.108;2023-04-07T12:14:30;100623.22;;;17.09;29.26
78909;BME280;68298;37.368;127.108;2023-04-07T12:17:01;100629.41;;;17.08;28.89
78909;BME280;68298;37.368;127.108;2023-04-07T12:19:32;100630.34;;;17.07;28.69
78909;BME280;68298;37.368;127.108;2023-04-07T12:22:04;100632.13;;;17.07;29.50
78909;BME280;68298;37.368;127.108;2023-04-07T12:24:34;100635.69;;;17.06;29.51
78909;BME280;68298;37.368;127.108;2023-04-07T12:27:05;100636.72;;;17.03;29.71
78909;BME280;68298;37.368;127.108;2023-04-07T12:29:36;100635.88;;;17.03;28.78
78909;BME280;68298;37.368;127.108;2023-04-07T12:32:07;100639.44;;;17.02;28.63
78909;BME280;68298;37.368;127.108;2023-04-07T12:34:39;100634.28;;;17.00;29.24
78909;BME280;68298;37.368;127.108;2023-04-07T12:37:10;100648.31;;;16.99;29.42
78909;BME280;68298;37.368;127.108;2023-04-07T12:39:40;100643.06;;;16.99;29.52
78909;BME280;68298;37.368;127.108;2023-04-07T12:42:11;100655.31;;;16.99;28.64
78909;BME280;68298;37.368;127.108;2023-04-07T12:44:41;100652.81;;;16.97;28.52
78909;BME280;68298;37.368;127.108;2023-04-07T12:47:12;100655.50;;;16.96;28.98
78909;BME280;68298;37.368;127.108;2023-04-07T12:49:43;100653.75;;;16.96;29.40
78909;BME280;68298;37.368;127.108;2023-04-07T12:52:15;100663.47;;;16.94;28.85
78909;BME280;68298;37.368;127.108;2023-04-07T12:54:49;100666.19;;;16.92;29.39
78909;BME280;68298;37.368;127.108;2023-04-07T12:57:21;100665.34;;;16.92;28.98
78909;BME280;68298;37.368;127.108;2023-04-07T12:59:51;100674.09;;;16.91;29.42
78909;BME280;68298;37.368;127.108;2023-04-07T13:02:23;100675.88;;;16.90;29.70
78909;BME280;68298;37.368;127.108;2023-04-07T13:04:54;100678.72;;;16.87;28.85
78909;BME280;68298;37.368;127.108;2023-04-07T13:07:25;100677.78;;;16.88;29.53
78909;BME280;68298;37.368;127.108;2023-04-07T13:09:56;100690.97;;;16.87;29.40
78909;BME280;68298;37.368;127.108;2023-04-07T13:12:26;100690.13;;;16.86;28.76
78909;BME280;68298;37.368;127.108;2023-04-07T13:14:57;100697.97;;;16.86;28.86
78909;BME280;68298;37.368;127.108;2023-04-07T13:17:29;100691.03;;;16.85;29.16
78909;BME280;68298;37.368;127.108;2023-04-07T13:19:59;100697.31;;;16.83;28.22
78909;BME280;68298;37.368;127.108;2023-04-07T13:22:31;100690.41;;;16.82;28.60
78909;BME280;68298;37.368;127.108;2023-04-07T13:25:04;100689.53;;;16.81;28.60
78909;BME280;68298;37.368;127.108;2023-04-07T13:27:34;100684.41;;;16.80;28.98
78909;BME280;68298;37.368;127.108;2023-04-07T13:30:06;100686.28;;;16.78;28.81
78909;BME280;68298;37.368;127.108;2023-04-07T13:32:36;100681.97;;;16.77;29.20
78909;BME280;68298;37.368;127.108;2023-04-07T13:35:07;100687.19;;;16.77;28.59
78909;BME280;68298;37.368;127.108;2023-04-07T13:37:38;100694.31;;;16.75;28.77
78909;BME280;68298;37.368;127.108;2023-04-07T13:40:10;100693.47;;;16.74;29.31